Time;durP1;ratioP1;P1;durP2;ratioP2;P2;SDS_P1;SDS_P2;PMS_P1;PMS_P2;Temp;Humidity;BMP_temperature;BMP_pressure;BME280_temperature;BME280_humidity;BME280_pressure;Samples;Min_cycle;Max_cycle;Signal;HPM_P1;HPM_P2
2022/09/18 00:04:00;;;;;;;2.00;1.00;;;21.50;64.90;;;;;;214603;1299;24350;-60
2022/09/18 00:09:08;;;;;;;1.90;1.00;;;21.50;64.60;;;;;;215138;1297;22573;-61
2022/09/18 00:14:15;;;;;;;1.80;1.10;;;21.50;64.70;;;;;;215288;1299;22597;-61
2022/09/18 00:19:19;;;;;;;2.30;1.00;;;21.50;64.60;;;;;;215225;1297;22588;-60
2022/09/18 00:24:23;;;;;;;1.80;1.10;;;21.50;64.60;;;;;;215107;1299;22570;-61
2022/09/18 00:29:29;;;;;;;1.40;0.90;;;21.40;64.50;;;;;;214842;1299;25281;-58
2022/09/18 00:34:33;;;;;;;1.50;0.90;;;21.40;64.40;;;;;;214868;1297;24445;-63
2022/09/18 00:39:39;;;;;;;1.40;0.90;;;21.40;64.50;;;;;;214840;1297;22616;-61
2022/09/18 00:44:47;;;;;;;2.10;1.10;;;21.40;64.50;;;;;;215330;1296;22643;-60
2022/09/18 00:49:58;;;;;;;2.20;1.00;;;21.40;64.40;;;;;;215091;1297;22600;-64
2022/09/18 00:55:07;;;;;;;1.60;1.10;;;21.40;64.50;;;;;;215307;1297;24357;-61
2022/09/18 01:00:15;;;;;;;1.90;1.00;;;21.30;64.40;;;;;;215056;1299;24536;-60
2022/09/18 01:05:51;;;;;;;2.10;1.00;;;21.40;64.40;;;;;;215172;1297;22573;-61
2022/09/18 01:10:59;;;;;;;2.30;0.90;;;21.30;64.40;;;;;;214977;1297;22689;-61
2022/09/18 01:16:17;;;;;;;2.40;0.90;;;21.30;64.70;;;;;;215105;1299;22598;-62
2022/09/18 01:21:30;;;;;;;1.30;0.80;;;21.30;64.40;;;;;;213843;1296;25291;-61
2022/09/18 01:26:55;;;;;;;1.90;0.90;;;21.30;64.40;;;;;;215178;1297;24422;-60
2022/09/18 01:32:05;;;;;;;1.60;1.00;;;21.30;64.70;;;;;;215106;1296;22582;-60
2022/09/18 01:37:24;;;;;;;2.80;1.00;;;21.30;64.30;;;;;;215109;1299;22586;-60
2022/09/18 01:42:33;;;;;;;1.40;1.00;;;21.30;64.30;;;;;;215030;1299;22735;-61
2022/09/18 01:47:51;;;;;;;1.90;1.20;;;21.30;64.30;;;;;;215104;1299;22565;-63
2022/09/18 01:53:25;;;;;;;3.00;1.00;;;21.30;64.30;;;;;;215239;1297;22599;-62
2022/09/18 01:58:32;;;;;;;2.30;1.20;;;21.20;64.30;;;;;;215238;1299;22566;-60
2022/09/18 02:03:46;;;;;;;1.70;0.90;;;21.20;64.20;;;;;;215283;1299;23978;-59
2022/09/18 02:08:53;;;;;;;2.20;0.90;;;21.20;64.50;;;;;;215045;1296;22656;-59
2022/09/18 02:14:12;;;;;;;2.10;0.90;;;21.20;64.20;;;;;;214999;1299;25292;-59
2022/09/18 02:19:36;;;;;;;2.20;1.00;;;21.20;64.80;;;;;;215238;1297;24322;-61
2022/09/18 02:24:44;;;;;;;1.40;0.90;;;21.20;64.20;;;;;;215229;1296;22733;-59
2022/09/18 02:29:48;;;;;;;1.60;1.00;;;21.20;64.20;;;;;;214872;1299;22586;-59
2022/09/18 02:34:52;;;;;;;1.60;1.00;;;21.20;64.20;;;;;;214766;1297;22576;-63
2022/09/18 02:40:21;;;;;;;1.50;0.90;;;21.10;64.10;;;;;;214939;1296;24330;-60
2022/09/18 02:45:31;;;;;;;2.30;1.20;;;21.10;64.20;;;;;;214881;1297;22605;-63
2022/09/18 02:51:00;;;;;;;2.00;1.00;;;21.10;64.20;;;;;;215149;1299;22608;-62
2022/09/18 02:56:11;;;;;;;1.50;0.80;;;21.10;64.20;;;;;;214749;1296;24316;-61
2022/09/18 03:01:16;;;;;;;;;;;21.10;64.10;;;;;;214996;1297;22587;-61
2022/09/18 03:06:19;;;;;;;1.60;0.90;;;21.10;64.10;;;;;;214760;1297;22567;-61
2022/09/18 03:11:23;;;;;;;2.20;1.00;;;21.10;64.10;;;;;;215061;1297;22512;-60
2022/09/18 03:16:27;;;;;;;1.40;0.90;;;21.10;64.10;;;;;;214841;1299;25339;-59
2022/09/18 03:21:31;;;;;;;1.80;0.90;;;21.10;64.40;;;;;;215335;1296;23261;-61
2022/09/18 03:26:35;;;;;;;2.00;1.10;;;21.10;64.10;;;;;;215019;1296;22521;-60
2022/09/18 03:31:40;;;;;;;1.70;1.00;;;21.10;64.10;;;;;;214945;1299;22612;-60
2022/09/18 03:36:45;;;;;;;1.80;1.00;;;21.00;64.40;;;;;;215310;1296;25293;-61
2022/09/18 03:41:51;;;;;;;1.80;1.00;;;21.00;64.00;;;;;;214893;1299;23949;-60
2022/09/18 03:46:54;;;;;;;1.90;0.90;;;21.10;64.40;;;;;;215307;1299;24274;-62
2022/09/18 03:51:58;;;;;;;1.90;1.10;;;21.00;64.30;;;;;;215209;1300;25230;-60
2022/09/18 03:57:06;;;;;;;1.70;0.80;;;21.00;64.40;;;;;;214910;1299;22811;-61
2022/09/18 04:02:31;;;;;;;1.70;1.00;;;21.00;64.10;;;;;;215346;1296;22606;-58
2022/09/18 04:07:53;;;;;;;1.60;0.80;;;21.00;64.00;;;;;;215278;1296;23179;-59
2022/09/18 04:13:15;;;;;;;1.50;0.90;;;21.00;64.00;;;;;;215272;1299;22573;-59
2022/09/18 04:18:19;;;;;;;1.50;0.70;;;21.00;63.80;;;;;;215305;1299;22586;-62
2022/09/18 04:23:24;;;;;;;1.40;0.90;;;21.00;63.90;;;;;;215091;1296;23071;-60
2022/09/18 04:28:27;;;;;;;1.40;0.80;;;21.00;63.90;;;;;;214995;1299;22561;-60
2022/09/18 04:33:31;;;;;;;2.80;1.10;;;21.00;63.90;;;;;;215171;1299;25261;-60
2022/09/18 04:38:35;;;;;;;1.40;0.80;;;21.00;63.90;;;;;;214938;1296;22697;-62
2022/09/18 04:43:39;;;;;;;1.50;0.80;;;21.00;63.90;;;;;;215035;1299;22991;-62
2022/09/18 04:48:48;;;;;;;1.30;0.80;;;21.00;63.80;;;;;;214969;1299;22566;-61
2022/09/18 04:53:52;;;;;;;1.30;0.70;;;20.90;63.80;;;;;;215259;1299;25356;-59
2022/09/18 04:58:58;;;;;;;2.50;0.80;;;21.00;64.20;;;;;;215115;1300;25355;-57
2022/09/18 05:04:05;;;;;;;1.30;0.80;;;20.90;64.20;;;;;;214743;1299;24359;-61
2022/09/18 05:09:27;;;;;;;1.80;0.80;;;20.90;63.80;;;;;;214924;1299;22672;-61
2022/09/18 05:14:31;;;;;;;1.20;0.70;;;20.90;63.80;;;;;;215129;1299;22598;-61
2022/09/18 05:19:37;;;;;;;1.70;0.80;;;21.00;63.90;;;;;;215302;1299;24356;-61
2022/09/18 05:24:48;;;;;;;1.10;0.70;;;20.90;63.80;;;;;;214707;1297;22560;-60
2022/09/18 05:29:52;;;;;;;1.30;0.80;;;20.90;63.80;;;;;;214929;1299;22567;-61
2022/09/18 05:34:57;;;;;;;1.60;0.70;;;20.90;63.80;;;;;;215188;1299;22609;-61
2022/09/18 05:40:01;;;;;;;1.40;0.80;;;20.90;63.90;;;;;;214889;1299;22629;-61
2022/09/18 05:45:08;;;;;;;1.30;0.70;;;20.90;63.80;;;;;;214971;1300;22642;-61
2022/09/18 05:50:14;;;;;;;1.30;0.80;;;20.90;64.10;;;;;;215285;1299;25327;-59
2022/09/18 05:55:20;;;;;;;1.50;0.90;;;20.90;63.30;;;;;;214931;1299;25461;-62
2022/09/18 06:00:27;;;;;;;1.20;0.70;;;20.90;64.10;;;;;;215200;1297;22684;-60
2022/09/18 06:05:37;;;;;;;1.00;0.80;;;20.90;64.10;;;;;;214855;1299;24304;-59
2022/09/18 06:10:41;;;;;;;1.40;0.70;;;20.90;63.70;;;;;;215287;1299;22637;-60
2022/09/18 06:15:53;;;;;;;1.20;0.60;;;20.90;63.70;;;;;;215069;1299;24347;-61
2022/09/18 06:21:15;;;;;;;1.70;0.80;;;20.90;63.70;;;;;;215018;1299;26510;-61
2022/09/18 06:26:30;;;;;;;1.60;0.80;;;20.90;64.00;;;;;;214802;1299;26551;-60
2022/09/18 06:31:56;;;;;;;1.60;0.80;;;20.80;63.60;;;;;;215141;1299;22628;-60
2022/09/18 06:37:58;;;;;;;1.70;0.90;;;20.80;63.70;;;;;;215130;1299;25672;-60
2022/09/18 06:43:37;;;;;;;1.40;0.80;;;20.90;63.70;;;;;;215127;1299;24331;-60
2022/09/18 06:48:53;;;;;;;1.40;0.70;;;20.90;63.60;;;;;;215338;1299;22637;-61
2022/09/18 06:53:57;;;;;;;0.80;0.60;;;20.90;63.60;;;;;;215289;1297;24405;-62
2022/09/18 06:59:03;;;;;;;1.50;0.90;;;20.90;63.60;;;;;;215068;1299;25527;-60
2022/09/18 07:04:07;;;;;;;1.40;0.80;;;20.90;63.70;;;;;;214918;1299;24278;-60
2022/09/18 07:09:18;;;;;;;1.50;0.80;;;20.80;63.60;;;;;;215395;1300;22582;-63
2022/09/18 07:14:42;;;;;;;1.50;0.80;;;20.90;63.60;;;;;;215052;1299;22568;-60
2022/09/18 07:19:53;;;;;;;1.20;0.80;;;20.80;63.50;;;;;;215154;1299;22758;-60
2022/09/18 07:25:16;;;;;;;1.30;0.90;;;20.80;63.90;;;;;;215219;1296;24329;-60
2022/09/18 07:30:24;;;;;;;1.20;0.70;;;20.80;63.60;;;;;;214823;1299;23738;-61
2022/09/18 07:35:32;;;;;;;0.70;0.60;;;20.80;63.60;;;;;;214842;1297;22693;-60
2022/09/18 07:40:40;;;;;;;1.20;0.70;;;20.80;63.60;;;;;;215111;1299;22760;-59
2022/09/18 07:45:56;;;;;;;1.00;0.70;;;20.80;63.50;;;;;;215272;1296;22697;-63
2022/09/18 07:51:07;;;;;;;1.20;0.70;;;20.80;63.40;;;;;;215107;1297;25339;-60
2022/09/18 07:56:16;;;;;;;1.20;0.80;;;20.80;63.40;;;;;;215140;1299;23967;-59
2022/09/18 08:01:33;;;;;;;1.10;0.60;;;20.80;63.70;;;;;;214971;1296;24335;-62
2022/09/18 08:06:46;;;;;;;1.40;0.70;;;20.80;63.40;;;;;;214859;1299;25445;-60
2022/09/18 08:12:24;;;;;;;1.50;0.80;;;20.80;63.80;;;;;;214944;1296;24530;-61
2022/09/18 08:18:07;;;;;;;0.80;0.70;;;20.80;63.40;;;;;;214772;1297;26513;-61
2022/09/18 08:23:30;;;;;;;0.70;0.60;;;20.80;63.10;;;;;;215048;1297;24303;-60
2022/09/18 08:28:38;;;;;;;1.10;0.80;;;20.80;63.30;;;;;;214587;1298;22611;-59
2022/09/18 08:33:46;;;;;;;1.10;0.70;;;20.80;63.40;;;;;;214943;1299;25517;-61
2022/09/18 08:38:53;;;;;;;0.90;0.60;;;20.80;63.60;;;;;;214976;1299;22563;-61
2022/09/18 08:44:30;;;;;;;1.00;0.50;;;20.80;63.30;;;;;;215225;1296;22752;-58
2022/09/18 08:50:15;;;;;;;1.20;0.70;;;20.80;63.40;;;;;;215062;1299;26974;-61
2022/09/18 08:55:41;;;;;;;1.40;0.70;;;20.80;63.90;;;;;;215003;1296;25520;-61
2022/09/18 09:01:08;;;;;;;0.90;0.60;;;20.80;63.70;;;;;;215151;1300;24688;-61
2022/09/18 09:06:49;;;;;;;0.80;0.60;;;20.80;63.30;;;;;;214737;1299;25242;-60
2022/09/18 09:12:29;;;;;;;1.30;0.80;;;20.80;63.30;;;;;;215024;1300;23064;-60
2022/09/18 09:18:04;;;;;;;1.00;0.70;;;20.80;63.40;;;;;;214606;1299;24199;-60
2022/09/18 09:24:16;;;;;;;1.00;0.70;;;20.80;63.30;;;;;;214869;1299;22659;-61
2022/09/18 09:29:43;;;;;;;1.10;0.70;;;20.80;63.30;;;;;;214388;1297;22836;-60
2022/09/18 09:35:28;;;;;;;1.00;0.60;;;20.80;63.60;;;;;;214927;1297;22566;-59
2022/09/18 09:41:45;;;;;;;1.30;0.80;;;20.80;63.30;;;;;;214596;1299;22607;-61
2022/09/18 09:47:10;;;;;;;1.40;0.70;;;20.80;63.30;;;;;;214783;1299;25524;-61
2022/09/18 09:52:24;;;;;;;0.80;0.70;;;20.80;63.50;;;;;;214961;1296;24466;-60
2022/09/18 09:57:49;;;;;;;1.30;0.70;;;20.80;63.20;;;;;;214866;1297;25374;-62
2022/09/18 10:03:32;;;;;;;1.10;0.70;;;20.80;63.60;;;;;;215300;1299;22861;-62
2022/09/18 10:09:07;;;;;;;1.10;0.60;;;20.80;63.30;;;;;;215037;1300;22749;-61
2022/09/18 10:14:24;;;;;;;1.00;0.70;;;20.80;63.20;;;;;;214759;1296;22871;-61
2022/09/18 10:19:35;;;;;;;0.80;0.60;;;20.70;63.10;;;;;;215186;1297;25685;-60
2022/09/18 10:25:32;;;;;;;0.80;0.60;;;20.80;63.20;;;;;;215096;1296;23219;-61
2022/09/18 10:31:08;;;;;;;0.80;0.60;;;20.70;63.20;;;;;;214900;1299;22650;-62
2022/09/18 10:36:45;;;;;;;;;;;;;;;;;;;;;
2022/09/18 10:42:06;;;;;;;1.20;0.70;;;20.70;63.10;;;;;;215182;1300;22573;-61
2022/09/18 10:47:15;;;;;;;1.90;0.80;;;20.70;63.10;;;;;;215069;1299;24352;-61
2022/09/18 10:52:35;;;;;;;1.50;0.60;;;20.80;63.10;;;;;;215044;1299;25425;-61
2022/09/18 10:58:16;;;;;;;1.10;0.60;;;20.80;63.40;;;;;;214720;1299;25463;-59
2022/09/18 11:03:49;;;;;;;;;;;;;;;;;;;;;
2022/09/18 11:09:11;;;;;;;1.30;0.80;;;20.70;63.10;;;;;;215215;1296;24105;-61
2022/09/18 11:14:38;;;;;;;0.70;0.60;;;20.70;63.00;;;;;;215168;1297;24406;-62
2022/09/18 11:20:24;;;;;;;0.90;0.70;;;20.70;63.00;;;;;;215016;1297;24334;-62
2022/09/18 11:26:24;;;;;;;1.50;0.60;;;20.70;63.00;;;;;;214912;1299;22571;-61
2022/09/18 11:31:58;;;;;;;0.90;0.60;;;20.70;63.10;;;;;;214794;1299;22596;-60
2022/09/18 11:37:10;;;;;;;0.80;0.60;;;20.70;63.10;;;;;;215215;1299;22566;-62
2022/09/18 11:42:22;;;;;;;0.80;0.60;;;20.70;63.00;;;;;;215344;1301;22582;-61
2022/09/18 11:47:38;;;;;;;1.40;0.70;;;20.70;62.90;;;;;;214867;1298;23266;-61
2022/09/18 11:53:09;;;;;;;0.90;0.60;;;20.80;63.00;;;;;;214835;1297;24107;-60
2022/09/18 11:58:42;;;;;;;0.90;0.50;;;20.70;63.20;;;;;;214880;1300;22735;-60
2022/09/18 12:04:03;;;;;;;1.20;0.70;;;20.70;62.90;;;;;;215168;1297;22588;-57
2022/09/18 12:09:32;;;;;;;0.80;0.70;;;20.70;62.80;;;;;;215023;1298;25344;-60
2022/09/18 12:15:09;;;;;;;1.00;0.70;;;20.80;62.90;;;;;;214943;1299;26602;-60
2022/09/18 12:20:45;;;;;;;1.10;0.70;;;20.80;62.80;;;;;;215169;1299;22644;-63
2022/09/18 12:26:05;;;;;;;1.50;0.80;;;20.80;62.80;;;;;;214885;1297;24319;-59
2022/09/18 12:31:17;;;;;;;1.30;0.70;;;20.80;62.70;;;;;;214971;1297;26536;-59
2022/09/18 12:36:36;;;;;;;1.60;0.80;;;20.80;62.80;;;;;;215191;1296;22572;-64
2022/09/18 12:41:57;;;;;;;1.50;0.70;;;20.80;62.80;;;;;;215098;1300;22567;-58
2022/09/18 12:47:43;;;;;;;1.10;0.70;;;20.80;62.90;;;;;;215116;1297;22627;-64
2022/09/18 12:53:13;;;;;;;1.50;0.90;;;20.80;62.60;;;;;;214786;1299;23084;-60
2022/09/18 12:58:37;;;;;;;1.10;0.70;;;20.80;62.60;;;;;;215226;1296;25436;-59
2022/09/18 13:03:43;;;;;;;1.00;0.60;;;20.80;62.90;;;;;;214999;1299;22568;-63
2022/09/18 13:08:56;;;;;;;1.20;0.80;;;20.90;62.70;;;;;;214805;1297;24291;-61
2022/09/18 13:14:16;;;;;;;1.40;0.80;;;20.80;62.70;;;;;;215208;1300;22738;-62
2022/09/18 13:19:45;;;;;;;1.80;0.70;;;20.80;62.70;;;;;;213890;1299;1650546;-61
2022/09/18 13:24:52;;;;;;;1.00;0.60;;;20.90;62.50;;;;;;214814;1297;24256;-61
2022/09/18 13:29:58;;;;;;;1.10;0.60;;;20.90;62.60;;;;;;215379;1299;25280;-61
2022/09/18 13:35:30;;;;;;;1.60;0.70;;;20.90;62.60;;;;;;215035;1299;24335;-61
2022/09/18 13:40:44;;;;;;;1.50;0.60;;;20.90;62.80;;;;;;215194;1300;22580;-59
2022/09/18 13:45:48;;;;;;;1.20;0.70;;;20.90;62.70;;;;;;215029;1299;24306;-60
2022/09/18 13:50:56;;;;;;;1.40;0.70;;;20.90;62.80;;;;;;215203;1299;22638;-60
2022/09/18 13:56:16;;;;;;;;;;;20.80;62.70;;;;;;214814;1297;22754;-60
2022/09/18 14:01:44;;;;;;;1.90;0.80;;;20.80;62.60;;;;;;215240;1297;22573;-63
2022/09/18 14:06:47;;;;;;;0.90;0.80;;;20.90;62.60;;;;;;214890;1297;26532;-60
2022/09/18 14:11:51;;;;;;;1.20;0.70;;;20.90;62.50;;;;;;215029;1297;22626;-57
2022/09/18 14:17:11;;;;;;;0.90;0.60;;;21.00;62.40;;;;;;215282;1299;23943;-60
2022/09/18 14:22:33;;;;;;;1.10;0.70;;;21.00;62.60;;;;;;215090;1297;22592;-62
2022/09/18 14:27:49;;;;;;;1.20;0.70;;;21.00;62.30;;;;;;215197;1297;25090;-61
2022/09/18 14:33:10;;;;;;;1.10;0.70;;;21.00;62.30;;;;;;215143;1297;24273;-59
2022/09/18 14:38:26;;;;;;;0.80;0.60;;;21.00;62.80;;;;;;215280;1297;24447;-64
2022/09/18 14:43:46;;;;;;;1.40;0.80;;;21.00;62.20;;;;;;214930;1299;24411;-61
2022/09/18 14:48:50;;;;;;;1.40;0.80;;;21.10;62.30;;;;;;215244;1297;22584;-61
2022/09/18 14:53:58;;;;;;;1.20;0.80;;;21.10;62.30;;;;;;215008;1299;26550;-61
2022/09/18 14:59:14;;;;;;;1.10;0.70;;;21.00;62.20;;;;;;214849;1299;25400;-60
2022/09/18 15:04:30;;;;;;;1.40;0.70;;;21.00;62.50;;;;;;214842;1299;24252;-62
2022/09/18 15:09:34;;;;;;;1.20;0.80;;;21.00;62.20;;;;;;215375;1297;24408;-61
2022/09/18 15:14:39;;;;;;;1.50;0.90;;;21.00;62.10;;;;;;215164;1299;23963;-60
2022/09/18 15:19:56;;;;;;;;;;;21.00;62.50;;;;;;215049;1297;22592;-60
2022/09/18 15:25:00;;;;;;;1.00;0.70;;;21.00;62.30;;;;;;215131;1297;24203;-50
2022/09/18 15:30:13;;;;;;;0.80;0.60;;;21.00;62.40;;;;;;214903;1299;25280;-52
2022/09/18 15:35:20;;;;;;;0.90;0.60;;;20.90;62.40;;;;;;215272;1296;24281;-49
2022/09/18 15:40:28;;;;;;;1.30;0.80;;;20.90;62.70;;;;;;214982;1297;22605;-49
2022/09/18 15:45:35;;;;;;;1.30;0.70;;;20.90;62.30;;;;;;215078;1299;22835;-52
2022/09/18 15:50:39;;;;;;;1.10;0.60;;;20.90;62.40;;;;;;215245;1297;22597;-50
2022/09/18 15:55:58;;;;;;;1.20;0.70;;;20.90;62.40;;;;;;214939;1297;25351;-52
2022/09/18 16:01:05;;;;;;;1.40;0.70;;;21.00;62.60;;;;;;215228;1298;22611;-53
2022/09/18 16:06:25;;;;;;;1.00;0.70;;;20.90;62.30;;;;;;215222;1297;22787;-51
2022/09/18 16:11:42;;;;;;;1.40;0.80;;;20.90;62.40;;;;;;214590;1297;24404;-49
2022/09/18 16:16:45;;;;;;;8.40;1.20;;;20.80;62.30;;;;;;214893;1299;22580;-52
2022/09/18 16:21:49;;;;;;;10.10;1.40;;;20.90;62.30;;;;;;214762;1297;22749;-48
2022/09/18 16:27:04;;;;;;;10.90;1.40;;;21.00;62.60;;;;;;214878;1297;22598;-49
2022/09/18 16:32:10;;;;;;;11.10;1.40;;;21.10;62.80;;;;;;215024;1298;25407;-53
2022/09/18 16:37:16;;;;;;;9.00;1.10;;;21.10;63.20;;;;;;215020;1296;24472;-49
2022/09/18 16:42:25;;;;;;;7.50;1.60;;;21.10;63.20;;;;;;215142;1296;25505;-50
2022/09/18 16:47:32;;;;;;;4.90;1.10;;;21.10;66.10;;;;;;215225;1297;24020;-52
2022/09/18 16:52:37;;;;;;;3.70;1.10;;;21.10;64.30;;;;;;215216;1296;25234;-52
2022/09/18 16:57:49;;;;;;;7.70;1.40;;;21.10;65.20;;;;;;215176;1297;22748;-51
2022/09/18 17:02:54;;;;;;;4.70;1.00;;;21.00;64.90;;;;;;214923;1296;24307;-51
2022/09/18 17:07:58;;;;;;;9.20;1.20;;;21.00;65.10;;;;;;217832;1297;24461;-54
2022/09/18 17:13:04;;;;;;;3.90;1.00;;;21.00;65.30;;;;;;215125;1297;22594;-51
2022/09/18 17:18:08;;;;;;;5.20;1.20;;;21.00;65.50;;;;;;215124;1299;22650;-51
2022/09/18 17:23:12;;;;;;;14.50;1.50;;;21.10;65.90;;;;;;215203;1299;25409;-52
2022/09/18 17:28:19;;;;;;;4.00;1.20;;;21.10;65.90;;;;;;214844;1297;22649;-49
2022/09/18 17:33:24;;;;;;;4.00;1.20;;;21.10;66.20;;;;;;214768;1297;25480;-51
2022/09/18 17:38:28;;;;;;;8.20;1.30;;;21.10;65.50;;;;;;215088;1297;25292;-50
2022/09/18 17:43:33;;;;;;;4.90;1.60;;;21.20;66.00;;;;;;215112;1299;25345;-56
2022/09/18 17:48:42;;;;;;;11.60;1.90;;;21.10;66.20;;;;;;215273;1297;22608;-50
2022/09/18 17:53:50;;;;;;;8.30;1.60;;;21.10;66.80;;;;;;215192;1297;24009;-53
2022/09/18 17:58:59;;;;;;;6.60;1.60;;;21.10;68.60;;;;;;214769;1299;22710;-49
2022/09/18 18:04:07;;;;;;;8.40;1.70;;;21.10;67.70;;;;;;215021;1299;24260;-55
2022/09/18 18:09:17;;;;;;;12.30;2.40;;;21.10;67.70;;;;;;214929;1299;24724;-56
2022/09/18 18:14:24;;;;;;;16.60;2.50;;;21.10;69.70;;;;;;214886;1299;22581;-50
2022/09/18 18:19:34;;;;;;;15.30;2.60;;;21.10;69.40;;;;;;215161;1299;23082;-51
2022/09/18 18:24:42;;;;;;;26.70;3.80;;;21.10;71.10;;;;;;215013;1299;25361;-51
2022/09/18 18:29:51;;;;;;;24.50;3.80;;;21.10;71.40;;;;;;215154;1297;22620;-49
2022/09/18 18:34:56;;;;;;;30.70;5.00;;;21.20;72.30;;;;;;215111;1300;26543;-49
2022/09/18 18:40:07;;;;;;;42.60;10.30;;;21.10;71.20;;;;;;215034;1299;22751;-54
2022/09/18 18:45:26;;;;;;;39.00;5.90;;;21.10;73.00;;;;;;214858;1299;25535;-49
2022/09/18 18:50:58;;;;;;;29.50;5.50;;;21.10;73.00;;;;;;214939;1299;24886;-54
2022/09/18 18:56:26;;;;;;;32.40;5.70;;;21.10;72.90;;;;;;215053;1297;22579;-51
2022/09/18 19:01:49;;;;;;;30.30;5.00;;;21.00;73.00;;;;;;215230;1299;24380;-54
2022/09/18 19:07:07;;;;;;;25.10;4.10;;;21.00;72.50;;;;;;215062;1297;24192;-51
2022/09/18 19:12:15;;;;;;;24.90;4.20;;;21.00;72.40;;;;;;215069;1297;25286;-51
2022/09/18 19:17:34;;;;;;;20.70;4.40;;;21.00;72.40;;;;;;215132;1299;22621;-51
2022/09/18 19:22:56;;;;;;;18.50;3.80;;;21.00;72.50;;;;;;215145;1297;25468;-48
2022/09/18 19:28:15;;;;;;;34.90;4.80;;;21.10;72.50;;;;;;215113;1299;24360;-51
2022/09/18 19:33:26;;;;;;;21.60;3.80;;;21.10;72.20;;;;;;214798;1297;25306;-50
2022/09/18 19:39:04;;;;;;;15.90;3.80;;;21.00;72.00;;;;;;215127;1299;24453;-49
2022/09/18 19:44:32;;;;;;;17.20;3.30;;;21.00;71.50;;;;;;215164;1297;23994;-52
2022/09/18 19:49:40;;;;;;;15.70;3.20;;;21.00;71.30;;;;;;214812;1297;23022;-52
2022/09/18 19:55:00;;;;;;;12.60;2.80;;;21.00;70.90;;;;;;215085;1296;22583;-50
2022/09/18 20:00:07;;;;;;;12.20;3.70;;;20.90;70.90;;;;;;215048;1296;24350;-51
2022/09/18 20:05:14;;;;;;;16.30;2.80;;;20.90;70.60;;;;;;214985;1297;22579;-52
2022/09/18 20:10:18;;;;;;;17.20;3.60;;;20.90;70.50;;;;;;214741;1296;22660;-48
2022/09/18 20:15:22;;;;;;;14.10;3.20;;;20.90;70.40;;;;;;214885;1297;24366;-53
2022/09/18 20:20:26;;;;;;;14.90;2.90;;;20.80;70.30;;;;;;214724;1297;22595;-49
2022/09/18 20:25:34;;;;;;;7.60;2.40;;;20.80;70.30;;;;;;215033;1296;22609;-53
2022/09/18 20:30:38;;;;;;;10.50;2.50;;;20.80;70.30;;;;;;215112;1296;22733;-57
2022/09/18 20:35:46;;;;;;;15.90;3.10;;;20.80;70.00;;;;;;214762;1299;25280;-50
2022/09/18 20:40:58;;;;;;;17.10;3.10;;;20.80;70.30;;;;;;214916;1297;22596;-49
2022/09/18 20:46:14;;;;;;;14.60;3.60;;;20.90;72.90;;;;;;214787;1297;25669;-53
2022/09/18 20:51:21;;;;;;;17.20;3.70;;;20.90;74.40;;;;;;214623;1299;23959;-53
2022/09/18 20:56:32;;;;;;;11.60;3.40;;;21.00;76.60;;;;;;215192;1297;25290;-49
2022/09/18 21:01:40;;;;;;;13.00;3.60;;;21.00;77.00;;;;;;214913;1296;22609;-54
2022/09/18 21:07:00;;;;;;;14.20;2.90;;;21.00;76.80;;;;;;214793;1297;22579;-49
2022/09/18 21:12:15;;;;;;;15.50;3.40;;;20.90;76.60;;;;;;214688;1296;22593;-50
2022/09/18 21:17:18;;;;;;;11.00;2.80;;;20.90;76.40;;;;;;214417;1297;22629;-50
2022/09/18 21:22:29;;;;;;;9.10;2.40;;;20.90;76.30;;;;;;215100;1296;24423;-49
2022/09/18 21:27:40;;;;;;;9.90;2.70;;;20.90;75.90;;;;;;215070;1299;24324;-50
2022/09/18 21:32:52;;;;;;;8.00;2.60;;;20.90;75.80;;;;;;215333;1296;22591;-53
2022/09/18 21:37:58;;;;;;;9.60;3.40;;;20.90;75.50;;;;;;214563;1299;22611;-52
2022/09/18 21:43:04;;;;;;;8.80;2.50;;;20.90;75.50;;;;;;214737;1299;24434;-49
2022/09/18 21:48:08;;;;;;;10.10;3.50;;;20.90;75.10;;;;;;214903;1296;23451;-51
2022/09/18 21:53:20;;;;;;;8.60;2.60;;;20.90;74.90;;;;;;214907;1297;24427;-52
2022/09/18 21:58:28;;;;;;;;;;;20.90;74.80;;;;;;214826;1297;25387;-52
2022/09/18 22:03:33;;;;;;;6.30;2.30;;;20.90;74.90;;;;;;214814;1299;25455;-49
2022/09/18 22:08:40;;;;;;;11.50;2.50;;;20.90;74.70;;;;;;215008;1297;22585;-51
2022/09/18 22:13:45;;;;;;;9.30;2.30;;;20.90;74.00;;;;;;215177;1297;25284;-51
2022/09/18 22:18:49;;;;;;;7.30;2.10;;;20.90;73.30;;;;;;215195;1296;22599;-50
2022/09/18 22:24:05;;;;;;;6.20;2.00;;;20.80;73.30;;;;;;215053;1296;22643;-55
2022/09/18 22:29:23;;;;;;;5.20;2.10;;;20.80;73.10;;;;;;214984;1297;23932;-50
2022/09/18 22:34:33;;;;;;;7.60;2.10;;;20.80;72.60;;;;;;215207;1299;22583;-53
2022/09/18 22:39:37;;;;;;;8.30;2.20;;;20.80;72.50;;;;;;214997;1296;25338;-49
2022/09/18 22:44:40;;;;;;;6.10;2.40;;;20.80;72.50;;;;;;215126;1297;25599;-48
2022/09/18 22:49:45;;;;;;;5.90;1.70;;;20.80;72.80;;;;;;215092;1299;22589;-49
2022/09/18 22:54:48;;;;;;;6.10;2.10;;;20.80;72.50;;;;;;214703;1299;23959;-47
2022/09/18 22:59:56;;;;;;;5.10;1.80;;;20.70;72.60;;;;;;215083;1299;22659;-53
2022/09/18 23:05:00;;;;;;;6.80;2.00;;;20.70;72.30;;;;;;215161;1299;22746;-50
2022/09/18 23:10:06;;;;;;;5.20;1.70;;;20.70;72.30;;;;;;215116;1299;22592;-53
2022/09/18 23:15:10;;;;;;;11.60;1.50;;;20.70;72.40;;;;;;215004;1296;22583;-50
2022/09/18 23:20:14;;;;;;;5.80;2.00;;;20.70;72.50;;;;;;214809;1296;25361;-50
2022/09/18 23:25:18;;;;;;;5.90;2.10;;;20.60;72.20;;;;;;214608;1299;24517;-49
2022/09/18 23:30:24;;;;;;;6.30;1.90;;;20.60;72.40;;;;;;214827;1296;23070;-49
2022/09/18 23:35:27;;;;;;;7.00;2.10;;;20.60;72.30;;;;;;214639;1299;24330;-49
2022/09/18 23:40:31;;;;;;;9.80;2.40;;;20.60;72.30;;;;;;214567;1299;24348;-51
2022/09/18 23:45:35;;;;;;;6.30;2.00;;;20.60;72.10;;;;;;214758;1299;22568;-51
2022/09/18 23:50:41;;;;;;;5.60;1.90;;;20.60;72.10;;;;;;214803;1300;22600;-47
2022/09/18 23:55:46;;;;;;;5.90;2.00;;;20.60;72.00;;;;;;215078;1297;25726;-51
